createdAt,value
2018-07-30T00:00:55.925Z,98681.48
2018-07-30T00:03:24.414Z,98677.91
2018-07-30T00:05:52.768Z,98685.54
2018-07-30T00:08:21.082Z,98680.25
2018-07-30T00:10:49.401Z,98685.78
2018-07-30T00:13:17.823Z,98683.70
2018-07-30T00:15:46.149Z,98679.89
2018-07-30T00:18:14.603Z,98681.78
2018-07-30T00:20:42.962Z,98677.38
2018-07-30T00:23:11.294Z,98678.47
2018-07-30T00:25:39.594Z,98673.07
2018-07-30T00:28:07.936Z,98679.61
2018-07-30T00:30:36.313Z,98679.49
2018-07-30T00:33:04.715Z,98679.91
2018-07-30T00:35:32.994Z,98680.64
2018-07-30T00:38:01.315Z,98682.75
2018-07-30T00:40:29.652Z,98686.25
2018-07-30T00:42:57.966Z,98686.20
2018-07-30T00:45:26.558Z,98683.55
2018-07-30T00:47:54.855Z,98685.48
2018-07-30T00:50:23.230Z,98684.84
2018-07-30T00:52:51.539Z,98692.30
2018-07-30T00:55:19.934Z,98691.88
2018-07-30T00:57:48.233Z,98687.16
2018-07-30T01:00:16.675Z,98687.16
2018-07-30T01:02:44.999Z,98692.67
2018-07-30T01:05:13.298Z,98693.48
2018-07-30T01:07:41.699Z,98691.08
2018-07-30T01:10:10.077Z,98694.42
2018-07-30T01:12:38.471Z,98686.84
2018-07-30T01:15:06.854Z,98689.37
2018-07-30T01:17:35.186Z,98686.72
2018-07-30T01:20:03.546Z,98699.78
2018-07-30T01:22:31.838Z,98697.48
2018-07-30T01:25:00.153Z,98699.47
2018-07-30T01:27:28.459Z,98694.97
2018-07-30T01:29:56.782Z,98695.26
2018-07-30T01:32:25.230Z,98695.94
2018-07-30T01:34:53.543Z,98691.97
2018-07-30T01:37:21.866Z,98688.53
2018-07-30T01:39:51.102Z,98693.55
2018-07-30T01:42:19.484Z,98695.41
2018-07-30T01:44:47.769Z,98694.06
2018-07-30T01:47:16.108Z,98690.59
2018-07-30T01:49:44.467Z,98698.16
2018-07-30T01:52:12.766Z,98693.91
2018-07-30T01:54:41.194Z,98702.37
2018-07-30T01:57:09.522Z,98702.63
2018-07-30T01:59:37.876Z,98701.26
2018-07-30T02:02:06.255Z,98704.51
2018-07-30T02:04:34.773Z,98704.81
2018-07-30T02:07:03.235Z,98710.28
2018-07-30T02:09:31.603Z,98712.96
2018-07-30T02:12:00.031Z,98705.66
2018-07-30T02:14:28.319Z,98708.66
2018-07-30T02:16:56.686Z,98707.82
2018-07-30T02:19:25.082Z,98712.00
2018-07-30T02:21:53.458Z,98714.39
2018-07-30T02:24:21.758Z,98720.63
2018-07-30T02:26:50.080Z,98721.41
2018-07-30T02:29:18.386Z,98722.77
2018-07-30T02:31:46.817Z,98722.84
2018-07-30T02:34:15.173Z,98719.30
2018-07-30T02:36:43.525Z,98723.51
2018-07-30T02:39:13.630Z,98725.25
2018-07-30T02:41:42.346Z,98723.06
2018-07-30T02:44:10.759Z,98723.92
2018-07-30T02:46:39.328Z,98723.06
2018-07-30T02:49:08.468Z,98714.37
2018-07-30T02:51:36.829Z,98714.90
2018-07-30T02:54:05.274Z,98723.38
2018-07-30T02:56:33.679Z,98729.48
2018-07-30T02:59:01.962Z,98726.46
2018-07-30T03:01:30.333Z,98731.44
2018-07-30T03:03:58.679Z,98731.30
2018-07-30T03:06:26.977Z,98732.22
2018-07-30T03:08:55.289Z,98735.08
2018-07-30T03:11:23.683Z,98732.16
2018-07-30T03:13:52.024Z,98736.86
2018-07-30T03:16:20.402Z,98738.66
2018-07-30T03:18:48.691Z,98742.61
2018-07-30T03:21:17.043Z,98736.58
2018-07-30T03:23:45.369Z,98743.33
2018-07-30T03:26:13.708Z,98742.16
2018-07-30T03:28:42.302Z,98736.56
2018-07-30T03:31:10.566Z,98742.91
2018-07-30T03:33:38.875Z,98740.10
2018-07-30T03:36:07.286Z,98738.89
2018-07-30T03:38:35.723Z,98745.17
2018-07-30T03:41:04.189Z,98757.09
2018-07-30T03:43:32.492Z,98752.95
2018-07-30T03:46:02.085Z,98757.86
2018-07-30T03:48:31.197Z,98754.73
2018-07-30T03:50:59.610Z,98754.57
2018-07-30T03:53:28.993Z,98751.72
2018-07-30T03:55:57.310Z,98751.78
2018-07-30T03:58:25.732Z,98750.31
2018-07-30T04:00:54.035Z,98751.28
2018-07-30T04:03:23.328Z,98754.34
2018-07-30T04:05:57.172Z,98751.55
2018-07-30T04:08:30.099Z,98752.38
2018-07-30T04:10:58.600Z,98757.36
2018-07-30T04:13:28.405Z,98751.50
2018-07-30T04:15:57.781Z,98751.39
2018-07-30T04:18:27.657Z,98753.74
2018-07-30T04:20:56.027Z,98760.02
2018-07-30T04:23:24.957Z,98758.69
2018-07-30T04:25:53.885Z,98754.48
2018-07-30T04:28:28.393Z,98756.58
2018-07-30T04:31:11.301Z,98756.14
2018-07-30T04:33:50.901Z,98760.30
2018-07-30T04:39:02.986Z,98756.33
2018-07-30T04:41:33.857Z,98753.66
2018-07-30T04:44:05.893Z,98748.79
2018-07-30T04:46:36.473Z,98751.88
2018-07-30T04:49:05.025Z,98754.19
2018-07-30T04:51:34.636Z,98756.27
2018-07-30T04:54:08.833Z,98754.25
2018-07-30T04:56:37.203Z,98761.02
2018-07-30T04:59:05.676Z,98756.10
2018-07-30T05:01:34.639Z,98760.05
2018-07-30T05:04:03.889Z,98757.28
2018-07-30T05:06:32.842Z,98762.30
2018-07-30T05:09:03.523Z,98764.58
2018-07-30T05:11:33.669Z,98769.53
2018-07-30T05:14:01.945Z,98763.41
2018-07-30T05:16:30.272Z,98767.09
2018-07-30T05:19:00.357Z,98768.23
2018-07-30T05:21:30.171Z,98759.27
2018-07-30T05:23:59.551Z,98767.53
2018-07-30T05:26:28.464Z,98765.38
2018-07-30T05:28:58.747Z,98762.92
2018-07-30T05:31:28.085Z,98767.73
2018-07-30T05:33:57.988Z,98776.30
2018-07-30T05:36:26.312Z,98776.83
2018-07-30T05:38:55.224Z,98782.89
2018-07-30T05:41:23.591Z,98786.80
2018-07-30T05:43:52.468Z,98785.37
2018-07-30T05:46:20.964Z,98788.03
2018-07-30T05:48:50.585Z,98790.28
2018-07-30T05:51:20.098Z,98790.01
2018-07-30T05:53:48.478Z,98787.29
2018-07-30T05:56:17.441Z,98781.03
2018-07-30T05:58:45.756Z,98785.87
2018-07-30T06:01:14.916Z,98782.34
2018-07-30T06:03:43.258Z,98776.52
2018-07-30T06:06:11.713Z,98775.49
2018-07-30T06:08:40.013Z,98784.66
2018-07-30T06:11:08.437Z,98781.34
2018-07-30T06:13:38.364Z,98781.95
2018-07-30T06:16:07.733Z,98786.23
2018-07-30T06:18:36.892Z,98788.81
2018-07-30T06:21:05.700Z,98789.52
2018-07-30T06:23:34.253Z,98784.72
2018-07-30T06:26:04.083Z,98787.23
2018-07-30T06:28:32.376Z,98783.73
2018-07-30T06:31:01.509Z,98784.88
2018-07-30T06:33:30.371Z,98786.44
2018-07-30T06:36:02.853Z,98789.58
2018-07-30T06:38:31.463Z,98790.59
2018-07-30T06:40:59.775Z,98791.73
2018-07-30T06:43:30.600Z,98793.23
2018-07-30T06:49:07.438Z,98793.84
2018-07-30T06:51:42.533Z,98795.71
2018-07-30T06:54:11.706Z,98799.73
2018-07-30T06:56:41.584Z,98793.67
2018-07-30T06:59:10.438Z,98800.34
2018-07-30T07:01:42.320Z,98803.83
2018-07-30T07:04:12.248Z,98800.04
2018-07-30T07:06:40.650Z,98802.91
2018-07-30T07:09:10.369Z,98807.77
2018-07-30T07:11:39.242Z,98807.47
2018-07-30T07:14:09.153Z,98804.58
2018-07-30T07:16:37.761Z,98802.91
2018-07-30T07:19:06.056Z,98807.96
2018-07-30T07:21:35.364Z,98803.92
2018-07-30T07:24:03.662Z,98809.20
2018-07-30T07:26:33.174Z,98801.81
2018-07-30T07:29:01.566Z,98799.55
2018-07-30T07:31:29.962Z,98800.50
2018-07-30T07:33:58.404Z,98802.24
2018-07-30T07:36:27.025Z,98804.63
2018-07-30T07:38:55.408Z,98798.91
2018-07-30T07:41:23.685Z,98793.22
2018-07-30T07:43:52.714Z,98803.81
2018-07-30T07:46:22.993Z,98805.39
2018-07-30T07:48:52.120Z,98804.17
2018-07-30T07:51:20.694Z,98801.34
2018-07-30T07:53:50.114Z,98800.36
2018-07-30T07:56:18.564Z,98800.59
2018-07-30T07:58:49.742Z,98797.21
2018-07-30T08:01:18.690Z,98800.70
2018-07-30T08:03:47.493Z,98802.59
2018-07-30T08:06:15.973Z,98798.88
2018-07-30T08:08:47.083Z,98798.95
2018-07-30T08:11:16.012Z,98798.03
2018-07-30T08:13:45.040Z,98799.24
2018-07-30T08:16:13.561Z,98802.48
2018-07-30T08:18:42.802Z,98796.31
2018-07-30T08:21:12.510Z,98790.83
2018-07-30T08:23:42.245Z,98800.22
2018-07-30T08:26:10.908Z,98792.06
2018-07-30T08:28:40.448Z,98796.09
2018-07-30T08:31:10.221Z,98787.84
2018-07-30T08:33:41.106Z,98788.13
2018-07-30T08:36:09.661Z,98793.69
2018-07-30T08:38:40.239Z,98791.23
2018-07-30T08:41:08.872Z,98791.23
2018-07-30T08:43:37.552Z,98793.12
2018-07-30T08:46:06.167Z,98784.59
2018-07-30T08:48:36.752Z,98792.03
2018-07-30T08:51:06.088Z,98797.59
2018-07-30T08:53:35.600Z,98797.52
2018-07-30T08:56:05.400Z,98797.66
2018-07-30T08:58:34.565Z,98796.06
2018-07-30T09:01:05.046Z,98796.85
2018-07-30T09:03:33.921Z,98794.33
2018-07-30T09:06:02.480Z,98792.41
2018-07-30T09:08:31.023Z,98796.98
2018-07-30T09:10:59.465Z,98791.98
2018-07-30T09:13:28.034Z,98787.64
2018-07-30T09:15:57.503Z,98787.25
2018-07-30T09:18:26.735Z,98795.58
2018-07-30T09:20:55.582Z,98796.90
2018-07-30T09:23:25.522Z,98802.56
2018-07-30T09:25:54.861Z,98792.80
2018-07-30T09:28:23.571Z,98800.91
2018-07-30T09:30:52.066Z,98796.03
2018-07-30T09:33:20.429Z,98797.55
2018-07-30T09:35:48.818Z,98794.42
2018-07-30T09:38:17.615Z,98801.95
2018-07-30T09:40:46.014Z,98798.92
2018-07-30T09:43:15.449Z,98797.69
2018-07-30T09:45:44.043Z,98796.38
2018-07-30T09:48:12.396Z,98791.68
2018-07-30T09:50:40.748Z,98791.00
2018-07-30T09:53:09.054Z,98791.01
2018-07-30T09:55:37.493Z,98786.59
2018-07-30T09:58:06.094Z,98788.05
2018-07-30T10:00:39.575Z,98792.05
2018-07-30T10:03:07.887Z,98793.09
2018-07-30T10:05:36.234Z,98786.59
2018-07-30T10:08:04.624Z,98788.39
2018-07-30T10:10:32.911Z,98791.11
2018-07-30T10:13:01.197Z,98790.02
2018-07-30T10:15:29.534Z,98800.38
2018-07-30T10:17:57.982Z,98789.58
2018-07-30T10:20:26.214Z,98795.98
2018-07-30T10:22:54.493Z,98786.34
2018-07-30T10:25:22.955Z,98786.88
2018-07-30T10:27:51.454Z,98788.10
2018-07-30T10:30:19.815Z,98785.70
2018-07-30T10:32:48.167Z,98788.39
2018-07-30T10:35:16.515Z,98785.05
2018-07-30T10:37:44.899Z,98781.22
2018-07-30T10:40:13.325Z,98780.08
2018-07-30T10:42:41.666Z,98778.27
2018-07-30T10:45:10.042Z,98780.48
2018-07-30T10:47:38.392Z,98774.89
2018-07-30T10:50:06.766Z,98771.59
2018-07-30T10:52:35.163Z,98767.78
2018-07-30T10:55:03.532Z,98769.73
2018-07-30T10:57:32.181Z,98764.02
2018-07-30T11:00:00.635Z,98758.60
2018-07-30T11:02:28.919Z,98759.72
2018-07-30T11:04:57.735Z,98757.28
2018-07-30T11:07:26.059Z,98750.50
2018-07-30T11:09:54.728Z,98757.68
2018-07-30T11:12:23.063Z,98756.58
2018-07-30T11:14:51.436Z,98757.14
2018-07-30T11:17:19.783Z,98754.38
2018-07-30T11:19:48.203Z,98755.22
2018-07-30T11:22:16.568Z,98756.31
2018-07-30T11:24:44.924Z,98757.93
2018-07-30T11:27:13.229Z,98755.94
2018-07-30T11:29:41.749Z,98748.56
2018-07-30T11:32:10.114Z,98744.94
2018-07-30T11:34:38.484Z,98751.76
2018-07-30T11:37:06.797Z,98744.91
2018-07-30T11:39:35.193Z,98745.52
2018-07-30T11:42:03.562Z,98738.91
2018-07-30T11:44:31.988Z,98738.92
2018-07-30T11:47:00.428Z,98744.98
2018-07-30T11:49:28.764Z,98737.27
2018-07-30T11:51:57.070Z,98738.56
2018-07-30T11:54:25.483Z,98734.37
2018-07-30T11:56:53.826Z,98726.27
2018-07-30T11:59:22.146Z,98731.91
2018-07-30T12:01:50.498Z,98730.39
2018-07-30T12:04:18.861Z,98722.64
2018-07-30T12:06:47.164Z,98723.85
2018-07-30T12:09:15.564Z,98726.88
2018-07-30T12:11:43.917Z,98722.47
2018-07-30T12:14:12.261Z,98719.35
2018-07-30T12:16:40.631Z,98724.17
2018-07-30T12:19:08.990Z,98726.58
2018-07-30T12:21:37.376Z,98720.27
2018-07-30T12:24:05.839Z,98715.84
2018-07-30T12:26:34.357Z,98716.03
2018-07-30T12:29:02.675Z,98714.30
2018-07-30T12:31:31.126Z,98704.16
2018-07-30T12:33:59.449Z,98705.67
2018-07-30T12:36:27.908Z,98705.47
2018-07-30T12:38:56.215Z,98701.23
2018-07-30T12:41:24.630Z,98703.06
2018-07-30T12:43:53.064Z,98700.69
2018-07-30T12:46:21.439Z,98701.03
2018-07-30T12:48:49.829Z,98703.05
2018-07-30T12:51:18.199Z,98705.50
2018-07-30T12:53:46.484Z,98695.92
2018-07-30T12:56:14.827Z,98699.28
2018-07-30T12:58:43.155Z,98701.05
2018-07-30T13:01:11.628Z,98689.93
2018-07-30T13:03:39.972Z,98692.92
2018-07-30T13:06:08.349Z,98688.28
2018-07-30T13:08:36.743Z,98696.44
2018-07-30T13:11:05.090Z,98689.94
2018-07-30T13:13:33.418Z,98688.83
2018-07-30T13:16:01.722Z,98687.41
2018-07-30T13:18:30.049Z,98688.83
2018-07-30T13:20:58.442Z,98684.31
2018-07-30T13:23:26.744Z,98677.45
2018-07-30T13:25:55.168Z,98676.41
2018-07-30T13:28:23.526Z,98677.58
2018-07-30T13:30:51.878Z,98670.95
2018-07-30T13:33:20.390Z,98670.79
2018-07-30T13:35:48.710Z,98673.81
2018-07-30T13:38:17.036Z,98674.83
2018-07-30T13:40:45.391Z,98669.78
2018-07-30T13:43:13.809Z,98674.67
2018-07-30T13:45:42.127Z,98668.98
2018-07-30T13:48:10.458Z,98665.34
2018-07-30T13:50:38.834Z,98663.16
2018-07-30T13:53:07.156Z,98658.06
2018-07-30T13:55:35.525Z,98663.59
2018-07-30T13:58:03.924Z,98653.34
2018-07-30T14:00:32.227Z,98656.48
2018-07-30T14:03:00.591Z,98661.45
2018-07-30T14:05:28.965Z,98655.99
2018-07-30T14:07:57.312Z,98657.58
2018-07-30T14:10:25.657Z,98653.01
2018-07-30T14:12:54.092Z,98658.45
2018-07-30T14:15:22.362Z,98650.94
2018-07-30T14:17:50.760Z,98648.84
2018-07-30T14:20:19.182Z,98653.45
2018-07-30T14:22:47.477Z,98653.70
2018-07-30T14:25:15.803Z,98647.34
2018-07-30T14:27:44.154Z,98646.41
2018-07-30T14:30:12.478Z,98649.73
2018-07-30T14:32:40.824Z,98646.36
2018-07-30T14:35:09.244Z,98647.26
2018-07-30T14:37:37.587Z,98652.63
2018-07-30T14:40:09.417Z,98643.42
2018-07-30T14:42:37.858Z,98638.05
2018-07-30T14:45:06.910Z,98637.20
2018-07-30T14:47:35.247Z,98626.39
2018-07-30T14:50:03.635Z,98626.38
2018-07-30T14:52:31.982Z,98616.56
2018-07-30T14:55:00.301Z,98620.30
2018-07-30T14:57:28.781Z,98625.92
2018-07-30T14:59:57.205Z,98620.84
2018-07-30T15:02:25.509Z,98616.06
2018-07-30T15:04:53.849Z,98618.05
2018-07-30T15:07:22.255Z,98618.62
2018-07-30T15:09:50.630Z,98611.18
2018-07-30T15:12:19.021Z,98605.87
2018-07-30T15:14:47.402Z,98612.66
2018-07-30T15:17:15.742Z,98603.81
2018-07-30T15:19:44.154Z,98611.05
2018-07-30T15:22:12.476Z,98612.80
2018-07-30T15:24:40.820Z,98606.77
2018-07-30T15:27:09.182Z,98607.35
2018-07-30T15:29:37.518Z,98604.81
2018-07-30T15:32:05.986Z,98605.13
2018-07-30T15:34:34.330Z,98608.86
2018-07-30T15:37:02.718Z,98602.72
2018-07-30T15:39:30.986Z,98600.10
2018-07-30T15:41:59.362Z,98608.16
2018-07-30T15:44:27.647Z,98601.16
2018-07-30T15:46:55.963Z,98602.02
2018-07-30T15:49:24.297Z,98600.70
2018-07-30T15:51:52.629Z,98601.83
2018-07-30T15:54:20.940Z,98602.12
2018-07-30T15:56:49.317Z,98597.20
2018-07-30T15:59:21.037Z,98596.78
2018-07-30T16:01:50.127Z,98597.83
2018-07-30T16:04:18.525Z,98596.84
2018-07-30T16:06:50.839Z,98598.92
2018-07-30T16:09:20.906Z,98597.89
2018-07-30T16:11:49.667Z,98595.44
2018-07-30T16:14:20.165Z,98604.41
2018-07-30T16:16:50.536Z,98613.08
2018-07-30T16:19:19.003Z,98604.41
2018-07-30T16:21:48.449Z,98602.22
2018-07-30T16:24:17.592Z,98605.33
2018-07-30T16:26:48.310Z,98609.31
2018-07-30T16:29:18.335Z,98606.02
2018-07-30T16:31:48.224Z,98605.81
2018-07-30T16:34:16.654Z,98603.70
2018-07-30T16:36:45.628Z,98609.52
2018-07-30T16:39:13.952Z,98600.67
2018-07-30T16:41:42.867Z,98605.67
2018-07-30T16:44:12.090Z,98608.06
2018-07-30T16:46:42.201Z,98606.13
2018-07-30T16:49:10.706Z,98608.34
2018-07-30T16:51:39.225Z,98608.66
2018-07-30T16:54:08.264Z,98605.63
2018-07-30T16:56:37.181Z,98610.33
2018-07-30T16:59:05.680Z,98603.69
2018-07-30T17:01:34.110Z,98604.52
2018-07-30T17:04:03.486Z,98609.50
2018-07-30T17:06:32.677Z,98604.53
2018-07-30T17:09:03.042Z,98601.20
2018-07-30T17:11:32.110Z,98597.91
2018-07-30T17:14:02.093Z,98604.83
2018-07-30T17:16:31.261Z,98606.19
2018-07-30T17:19:02.213Z,98610.03
2018-07-30T17:21:30.922Z,98606.74
2018-07-30T17:24:03.496Z,98613.33
2018-07-30T17:26:34.079Z,98613.06
2018-07-30T17:29:03.745Z,98612.23
2018-07-30T17:31:33.693Z,98614.37
2018-07-30T17:34:02.205Z,98618.23
2018-07-30T17:36:31.549Z,98618.20
2018-07-30T17:38:59.940Z,98612.73
2018-07-30T17:41:28.545Z,98617.69
2018-07-30T17:43:57.821Z,98623.20
2018-07-30T17:46:26.222Z,98621.30
2018-07-30T17:49:02.886Z,98625.19
2018-07-30T17:51:32.302Z,98621.61
2018-07-30T17:54:02.559Z,98625.48
2018-07-30T17:56:31.281Z,98625.19
2018-07-30T17:59:00.170Z,98624.08
2018-07-30T18:01:31.248Z,98631.55
2018-07-30T18:04:00.286Z,98623.55
2018-07-30T18:06:28.620Z,98617.20
2018-07-30T18:08:57.031Z,98624.66
2018-07-30T18:11:25.997Z,98628.24
2018-07-30T18:13:55.224Z,98626.50
2018-07-30T18:16:25.854Z,98633.36
2018-07-30T18:18:54.246Z,98635.84
2018-07-30T18:21:22.868Z,98639.14
2018-07-30T18:23:58.537Z,98641.62
2018-07-30T18:29:50.190Z,98637.36
2018-07-30T18:32:19.464Z,98640.20
2018-07-30T18:34:51.110Z,98641.66
2018-07-30T18:37:19.753Z,98640.81
2018-07-30T18:39:48.325Z,98640.27
2018-07-30T18:42:16.718Z,98646.82
2018-07-30T18:44:45.111Z,98647.72
2018-07-30T18:47:15.486Z,98650.16
2018-07-30T18:49:44.870Z,98652.08
2018-07-30T18:52:14.628Z,98647.79
2018-07-30T18:54:43.089Z,98646.02
2018-07-30T18:57:12.889Z,98650.74
2018-07-30T18:59:44.358Z,98658.67
2018-07-30T19:02:18.737Z,98655.46
2018-07-30T19:05:01.695Z,98664.48
2018-07-30T19:12:48.483Z,98660.91
2018-07-30T19:15:18.581Z,98677.09
2018-07-30T19:20:22.233Z,98689.72
2018-07-30T19:23:20.718Z,98687.20
2018-07-30T19:25:50.428Z,98689.59
2018-07-30T19:28:19.891Z,98690.17
2018-07-30T19:30:48.922Z,98692.91
2018-07-30T19:33:30.075Z,98697.22
2018-07-30T19:36:13.216Z,98696.58
2018-07-30T19:38:48.838Z,98695.45
2018-07-30T19:41:17.976Z,98698.83
2018-07-30T19:43:47.395Z,98704.44
2018-07-30T19:46:57.339Z,98704.78
2018-07-30T19:49:50.045Z,98703.26
2018-07-30T19:52:21.502Z,98706.23
2018-07-30T19:56:26.605Z,98701.20
2018-07-30T19:59:21.232Z,98708.90
2018-07-30T20:01:49.678Z,98722.13
2018-07-30T20:04:23.236Z,98721.92
2018-07-30T20:12:46.182Z,98709.97
2018-07-30T20:15:19.661Z,98718.77
2018-07-30T20:17:48.838Z,98718.50
2018-07-30T20:20:17.677Z,98724.12
2018-07-30T20:22:47.722Z,98721.98
2018-07-30T20:25:16.746Z,98720.79
2018-07-30T20:27:45.240Z,98722.96
2018-07-30T20:30:14.671Z,98721.66
2018-07-30T20:32:45.725Z,98724.78
2018-07-30T20:35:15.429Z,98724.55
2018-07-30T20:40:52.132Z,98732.17
2018-07-30T20:43:22.378Z,98737.86
2018-07-30T20:45:55.732Z,98739.09
2018-07-30T20:48:37.304Z,98735.90
2018-07-30T20:51:06.432Z,98737.02
2018-07-30T20:53:35.638Z,98737.80
2018-07-30T21:01:58.061Z,98744.75
2018-07-30T21:04:27.932Z,98742.70
2018-07-30T21:06:57.010Z,98742.42
2018-07-30T21:09:27.049Z,98747.58
2018-07-30T21:11:56.670Z,98747.05
2018-07-30T21:14:25.138Z,98746.52
2018-07-30T21:16:55.047Z,98746.66
2018-07-30T21:19:23.460Z,98751.17
2018-07-30T21:21:52.588Z,98746.05
2018-07-30T21:24:22.834Z,98747.26
2018-07-30T21:26:53.877Z,98751.20
2018-07-30T21:29:22.910Z,98748.45
2018-07-30T21:31:52.796Z,98741.38
2018-07-30T21:34:21.825Z,98750.23
2018-07-30T21:36:51.169Z,98747.53
2018-07-30T21:39:20.946Z,98743.97
2018-07-30T21:41:49.446Z,98743.98
2018-07-30T21:44:18.167Z,98742.54
2018-07-30T21:46:46.581Z,98744.06
2018-07-30T21:49:14.980Z,98739.37
2018-07-30T21:51:43.360Z,98742.06
2018-07-30T21:54:11.818Z,98743.13
2018-07-30T21:56:42.245Z,98743.64
2018-07-30T21:59:11.217Z,98744.20
2018-07-30T22:01:39.882Z,98747.92
2018-07-30T22:04:08.803Z,98749.34
2018-07-30T22:06:37.290Z,98742.28
2018-07-30T22:09:08.782Z,98746.34
2018-07-30T22:11:37.461Z,98745.80
2018-07-30T22:14:12.168Z,98745.48
2018-07-30T22:16:40.533Z,98750.30
2018-07-30T22:19:08.938Z,98752.37
2018-07-30T22:21:37.270Z,98754.73
2018-07-30T22:24:05.637Z,98749.69
2018-07-30T22:26:34.006Z,98755.94
2018-07-30T22:29:02.316Z,98746.56
2018-07-30T22:31:30.588Z,98746.75
2018-07-30T22:33:58.873Z,98750.98
2018-07-30T22:36:27.151Z,98744.41
2018-07-30T22:38:55.445Z,98743.02
2018-07-30T22:41:23.733Z,98746.07
2018-07-30T22:43:52.041Z,98748.41
2018-07-30T22:46:20.440Z,98750.00
2018-07-30T22:48:48.792Z,98753.75
2018-07-30T22:51:17.139Z,98748.84
2018-07-30T22:53:45.466Z,98752.81
2018-07-30T22:56:13.777Z,98751.36
2018-07-30T22:58:42.132Z,98747.48
2018-07-30T23:01:10.479Z,98744.75
2018-07-30T23:03:38.816Z,98743.41
2018-07-30T23:06:07.226Z,98746.45
2018-07-30T23:08:35.652Z,98746.24
2018-07-30T23:11:04.009Z,98739.33
2018-07-30T23:13:32.386Z,98747.91
2018-07-30T23:16:00.731Z,98741.94
2018-07-30T23:18:29.096Z,98754.06
2018-07-30T23:20:57.356Z,98745.72
2018-07-30T23:23:25.652Z,98758.03
2018-07-30T23:25:53.942Z,98747.19
2018-07-30T23:28:22.291Z,98747.92
2018-07-30T23:30:50.809Z,98745.46
2018-07-30T23:33:19.133Z,98743.37
2018-07-30T23:35:47.405Z,98734.30
2018-07-30T23:38:15.746Z,98733.53
2018-07-30T23:40:44.010Z,98741.22
2018-07-30T23:43:12.387Z,98743.10
2018-07-30T23:45:40.673Z,98745.46
2018-07-30T23:48:08.921Z,98733.25
2018-07-30T23:50:37.193Z,98734.45
2018-07-30T23:53:05.565Z,98733.50
2018-07-30T23:55:33.797Z,98732.47
2018-07-30T23:58:02.127Z,98736.64
